Terminal Aerodrome Forecast
Issued by NWS Wilmington, OH

Current Version | Previous Version | Graphics & Text | Print | Product List | Glossary On
Versions: 1 2 3 4 5 6 7 8 9 10 11 12 13 14 15
587
FTUS41 KILN 111741
TAFDAY
TAF
KDAY 111741Z 1118/1218 30010KT P6SM SCT028 BKN050
      TEMPO 1118/1120 BKN028
     FM120000 26005KT P6SM FEW050
     FM120400 VRB03KT P6SM BKN120
     FM121100 21005KT P6SM BKN050 OVC080
     FM121500 25010KT P6SM OVC040=

USA.gov is the U.S. government's official web portal to all federal, state and local government web resources and services.